createdAt,value
2019-04-29T00:00:12.695Z,7.00
2019-04-29T00:02:45.418Z,7.10
2019-04-29T00:05:17.669Z,7.10
2019-04-29T00:07:49.708Z,7.10
2019-04-29T00:10:22.404Z,7.10
2019-04-29T00:12:53.030Z,7.20
2019-04-29T00:15:42.503Z,7.20
2019-04-29T00:18:19.909Z,7.10
2019-04-29T00:20:51.357Z,7.10
2019-04-29T00:23:21.993Z,7.20
2019-04-29T00:25:52.651Z,7.20
2019-04-29T00:28:23.694Z,7.20
2019-04-29T00:30:55.487Z,7.30
2019-04-29T00:33:26.107Z,7.20
2019-04-29T00:35:56.821Z,7.20
2019-04-29T00:38:53.402Z,7.30
2019-04-29T00:41:38.488Z,7.20
2019-04-29T00:44:11.237Z,7.30
2019-04-29T00:46:41.826Z,7.40
2019-04-29T00:49:12.441Z,7.40
2019-04-29T00:51:43.078Z,7.40
2019-04-29T00:54:20.138Z,7.40
2019-04-29T00:56:50.725Z,7.40
2019-04-29T00:59:21.276Z,7.30
2019-04-29T01:01:51.805Z,7.30
2019-04-29T01:04:22.417Z,7.20
2019-04-29T01:06:54.031Z,7.10
2019-04-29T01:09:24.825Z,7.10
2019-04-29T01:11:55.360Z,7.10
2019-04-29T01:14:25.913Z,7.10
2019-04-29T01:16:56.806Z,7.10
2019-04-29T01:19:27.389Z,7.10
2019-04-29T01:21:59.088Z,7.00
2019-04-29T01:24:31.059Z,7.10
2019-04-29T01:27:20.482Z,7.10
2019-04-29T01:29:50.992Z,7.10
2019-04-29T01:32:21.663Z,7.00
2019-04-29T01:34:53.845Z,7.00
2019-04-29T01:37:43.097Z,7.10
2019-04-29T01:40:32.528Z,7.20
2019-04-29T01:43:03.067Z,7.10
2019-04-29T01:45:33.540Z,7.10
2019-04-29T01:48:06.754Z,7.10
2019-04-29T01:50:37.807Z,7.10
2019-04-29T01:53:08.327Z,7.10
2019-04-29T01:55:39.280Z,7.00
2019-04-29T01:58:09.935Z,7.00
2019-04-29T02:00:40.978Z,7.10
2019-04-29T02:03:11.466Z,7.00
2019-04-29T02:05:42.048Z,7.00
2019-04-29T02:08:13.014Z,7.10
2019-04-29T02:10:43.576Z,7.00
2019-04-29T02:13:14.083Z,7.00
2019-04-29T02:15:44.812Z,6.90
2019-04-29T02:18:16.362Z,6.90
2019-04-29T02:20:46.889Z,6.90
2019-04-29T02:23:27.498Z,6.90
2019-04-29T02:25:58.070Z,6.90
2019-04-29T02:28:28.698Z,6.90
2019-04-29T02:31:02.133Z,6.90
2019-04-29T02:33:32.652Z,6.90
2019-04-29T02:36:03.195Z,6.90
2019-04-29T02:38:40.104Z,6.90
2019-04-29T02:41:24.325Z,6.90
2019-04-29T02:43:56.453Z,6.90
2019-04-29T02:46:27.008Z,6.90
2019-04-29T02:48:57.929Z,6.80
2019-04-29T02:51:47.370Z,6.90
2019-04-29T02:54:17.900Z,6.90
2019-04-29T02:56:56.719Z,6.90
2019-04-29T02:59:33.052Z,6.90
2019-04-29T03:02:16.563Z,7.00
2019-04-29T03:05:05.800Z,6.90
2019-04-29T03:07:36.392Z,6.90
2019-04-29T03:10:07.339Z,6.90
2019-04-29T03:12:38.550Z,6.90
2019-04-29T03:15:09.754Z,6.80
2019-04-29T03:17:40.349Z,6.90
2019-04-29T03:20:30.349Z,6.80
2019-04-29T03:23:28.897Z,6.90
2019-04-29T03:25:59.462Z,6.80
2019-04-29T03:28:30.078Z,6.80
2019-04-29T03:31:00.692Z,6.70
2019-04-29T03:33:31.212Z,6.60
2019-04-29T03:36:01.827Z,6.50
2019-04-29T03:38:32.358Z,6.50
2019-04-29T03:41:03.396Z,6.50
2019-04-29T03:43:33.899Z,6.50
2019-04-29T03:46:04.385Z,6.50
2019-04-29T03:48:34.934Z,6.50
2019-04-29T03:51:05.486Z,6.40
2019-04-29T03:53:35.962Z,6.50
2019-04-29T03:56:06.492Z,6.40
2019-04-29T03:58:36.983Z,6.30
2019-04-29T04:01:22.158Z,6.20
2019-04-29T04:03:57.140Z,6.10
2019-04-29T04:06:41.883Z,6.10
2019-04-29T04:09:26.956Z,6.10
2019-04-29T04:11:57.898Z,6.00
2019-04-29T04:14:29.115Z,6.30
2019-04-29T04:17:20.620Z,6.60
2019-04-29T04:19:51.295Z,6.70
2019-04-29T04:22:22.373Z,6.80
2019-04-29T04:24:53.406Z,6.80
2019-04-29T04:27:24.395Z,6.90
2019-04-29T04:29:55.983Z,7.00
2019-04-29T04:32:26.453Z,7.00
2019-04-29T04:34:57.018Z,7.00
2019-04-29T04:37:30.620Z,7.00
2019-04-29T04:40:01.201Z,7.00
2019-04-29T04:42:31.908Z,7.10
2019-04-29T04:45:02.900Z,7.10
2019-04-29T04:47:33.699Z,7.30
2019-04-29T04:50:04.869Z,7.30
2019-04-29T04:52:35.783Z,7.40
2019-04-29T04:55:06.496Z,7.60
2019-04-29T04:57:37.085Z,7.70
2019-04-29T05:00:12.606Z,7.90
2019-04-29T05:02:43.164Z,8.00
2019-04-29T05:05:13.840Z,8.00
2019-04-29T05:07:44.350Z,7.90
2019-04-29T05:10:14.784Z,7.90
2019-04-29T05:12:45.264Z,7.90
2019-04-29T05:15:16.561Z,7.80
2019-04-29T05:17:48.037Z,7.80
2019-04-29T05:20:18.968Z,8.10
2019-04-29T05:23:02.033Z,8.00
2019-04-29T05:25:34.189Z,8.20
2019-04-29T05:28:05.711Z,8.20
2019-04-29T05:30:39.734Z,8.30
2019-04-29T05:33:13.952Z,8.40
2019-04-29T05:36:02.039Z,8.50
2019-04-29T05:38:42.571Z,8.30
2019-04-29T05:41:13.091Z,8.30
2019-04-29T05:44:02.152Z,8.20
2019-04-29T05:47:00.792Z,8.10
2019-04-29T05:49:41.728Z,8.00
2019-04-29T05:52:34.783Z,7.90
2019-04-29T05:55:04.694Z,7.70
2019-04-29T05:57:35.739Z,7.60
2019-04-29T06:00:06.542Z,7.50
2019-04-29T06:02:38.848Z,7.50
2019-04-29T06:05:10.252Z,7.50
2019-04-29T06:07:42.198Z,7.50
2019-04-29T06:10:13.456Z,7.60
2019-04-29T06:12:44.573Z,7.60
2019-04-29T06:15:16.351Z,7.60
2019-04-29T06:17:46.866Z,7.70
2019-04-29T06:20:19.374Z,7.80
2019-04-29T06:22:49.926Z,7.80
2019-04-29T06:25:21.025Z,7.90
2019-04-29T06:27:51.620Z,7.90
2019-04-29T06:30:23.120Z,7.80
2019-04-29T06:32:54.452Z,7.80
2019-04-29T06:35:24.996Z,7.80
2019-04-29T06:37:56.048Z,7.90
2019-04-29T06:40:30.480Z,7.90
2019-04-29T06:43:00.340Z,8.00
2019-04-29T06:45:31.708Z,8.00
2019-04-29T06:48:02.732Z,8.00
2019-04-29T06:50:34.767Z,8.10
2019-04-29T06:53:07.084Z,8.20
2019-04-29T06:55:38.122Z,8.20
2019-04-29T06:58:09.073Z,8.20
2019-04-29T07:00:40.380Z,8.20
2019-04-29T07:03:11.337Z,8.20
2019-04-29T07:05:41.841Z,8.20
2019-04-29T07:08:12.775Z,8.20
2019-04-29T07:10:43.328Z,8.20
2019-04-29T07:13:17.809Z,8.20
2019-04-29T07:15:47.898Z,8.30
2019-04-29T07:18:19.488Z,8.30
2019-04-29T07:20:50.564Z,8.30
2019-04-29T07:23:21.055Z,8.50
2019-04-29T07:25:52.125Z,8.50
2019-04-29T07:28:23.728Z,8.50
2019-04-29T07:31:02.781Z,8.50
2019-04-29T07:33:26.410Z,8.60
2019-04-29T07:36:10.071Z,8.70
2019-04-29T07:38:40.475Z,8.80
2019-04-29T07:41:02.109Z,8.80
2019-04-29T07:43:32.959Z,8.90
2019-04-29T07:46:21.103Z,8.80
2019-04-29T07:49:01.380Z,8.90
2019-04-29T07:51:24.815Z,9.00
2019-04-29T07:53:55.336Z,8.90
2019-04-29T07:56:25.839Z,9.10
2019-04-29T07:58:58.849Z,9.30
2019-04-29T08:01:29.168Z,9.50
2019-04-29T08:03:59.692Z,9.70
2019-04-29T08:06:30.920Z,9.80
2019-04-29T08:09:07.324Z,9.90
2019-04-29T08:11:34.997Z,10.10
2019-04-29T08:14:05.616Z,10.10
2019-04-29T08:16:36.616Z,10.20
2019-04-29T08:19:08.836Z,10.20
2019-04-29T08:21:39.776Z,10.40
2019-04-29T08:24:11.680Z,10.30
2019-04-29T08:26:47.374Z,10.20
2019-04-29T08:29:16.324Z,10.10
2019-04-29T08:31:46.848Z,10.30
2019-04-29T08:34:18.669Z,10.40
2019-04-29T08:36:49.879Z,10.60
2019-04-29T08:39:20.848Z,11.00
2019-04-29T08:41:51.963Z,11.10
2019-04-29T08:44:36.855Z,11.20
2019-04-29T08:47:31.581Z,11.40
2019-04-29T08:50:01.512Z,11.50
2019-04-29T08:52:32.355Z,11.80
2019-04-29T08:55:02.908Z,11.90
2019-04-29T08:57:36.575Z,11.80
2019-04-29T09:00:07.372Z,11.80
2019-04-29T09:02:41.258Z,11.30
2019-04-29T09:05:11.433Z,11.00
2019-04-29T09:07:42.825Z,11.20
2019-04-29T09:10:14.903Z,11.40
2019-04-29T09:12:45.884Z,11.70
2019-04-29T09:15:19.636Z,12.00
2019-04-29T09:17:50.116Z,12.30
2019-04-29T09:20:21.084Z,12.50
2019-04-29T09:22:56.680Z,12.70
2019-04-29T09:26:02.848Z,12.70
2019-04-29T09:28:33.841Z,12.60
2019-04-29T09:31:04.512Z,12.30
2019-04-29T09:33:35.112Z,12.20
2019-04-29T09:36:09.665Z,12.00
2019-04-29T09:38:38.810Z,11.80
2019-04-29T09:41:35.204Z,11.50
2019-04-29T09:44:40.270Z,11.20
2019-04-29T09:47:10.966Z,10.90
2019-04-29T09:49:42.628Z,10.60
2019-04-29T09:52:14.073Z,10.40
2019-04-29T09:54:44.637Z,10.30
2019-04-29T09:57:15.283Z,10.30
2019-04-29T09:59:50.930Z,10.20
2019-04-29T10:02:46.284Z,10.10
2019-04-29T10:05:39.453Z,10.00
2019-04-29T10:08:10.088Z,10.10
2019-04-29T10:10:40.960Z,10.30
2019-04-29T10:13:11.570Z,10.50
2019-04-29T10:16:19.301Z,10.70
2019-04-29T10:19:09.679Z,10.90
2019-04-29T10:21:40.599Z,11.10
2019-04-29T10:24:14.455Z,11.40
2019-04-29T10:26:43.765Z,11.50
2019-04-29T10:29:18.521Z,11.70
2019-04-29T10:31:48.841Z,11.70
2019-04-29T10:34:19.835Z,11.30
2019-04-29T10:36:52.173Z,11.00
2019-04-29T10:39:42.613Z,10.70
2019-04-29T10:42:14.820Z,10.50
2019-04-29T10:44:56.764Z,10.30
2019-04-29T10:47:41.093Z,10.30
2019-04-29T10:50:17.055Z,10.40
2019-04-29T10:52:48.753Z,10.50
2019-04-29T10:55:20.302Z,10.70
2019-04-29T10:57:51.487Z,10.90
2019-04-29T11:00:35.871Z,10.90
2019-04-29T11:03:06.548Z,11.00
2019-04-29T11:05:44.598Z,11.00
2019-04-29T11:08:39.336Z,10.90
2019-04-29T11:11:22.756Z,11.10
2019-04-29T11:13:48.132Z,11.20
2019-04-29T11:16:16.217Z,11.20
2019-04-29T11:18:48.852Z,11.20
2019-04-29T11:21:19.977Z,11.00
2019-04-29T11:24:08.800Z,10.70
2019-04-29T11:26:48.409Z,10.60
2019-04-29T11:29:22.123Z,10.40
2019-04-29T11:31:55.788Z,10.30
2019-04-29T11:34:42.129Z,10.30
2019-04-29T11:37:17.789Z,10.50
2019-04-29T11:39:50.291Z,10.90
2019-04-29T11:42:20.052Z,11.20
2019-04-29T11:44:50.960Z,11.40
2019-04-29T11:47:25.189Z,11.80
2019-04-29T11:50:07.667Z,12.00
2019-04-29T11:52:36.159Z,12.10
2019-04-29T11:55:07.440Z,11.80
2019-04-29T11:57:44.492Z,11.20
2019-04-29T12:00:43.607Z,10.60
2019-04-29T12:03:19.020Z,10.30
2019-04-29T12:05:55.532Z,10.30
2019-04-29T12:08:26.480Z,10.40
2019-04-29T12:11:06.810Z,10.70
2019-04-29T12:13:54.193Z,10.90
2019-04-29T12:16:47.320Z,11.20
2019-04-29T12:19:22.600Z,11.10
2019-04-29T12:21:53.137Z,11.20
2019-04-29T12:24:23.796Z,11.50
2019-04-29T12:26:54.288Z,11.60
2019-04-29T12:29:24.905Z,11.90
2019-04-29T12:32:20.529Z,12.20
2019-04-29T12:34:57.959Z,12.50
2019-04-29T12:37:47.544Z,12.50
2019-04-29T12:40:36.263Z,12.20
2019-04-29T12:43:25.071Z,11.90
2019-04-29T12:46:19.356Z,11.60
2019-04-29T12:48:49.980Z,11.60
2019-04-29T12:51:21.162Z,11.50
2019-04-29T12:53:52.105Z,11.60
2019-04-29T12:56:32.592Z,11.50
2019-04-29T12:59:03.104Z,11.20
2019-04-29T13:01:54.147Z,10.90
2019-04-29T13:04:38.972Z,10.60
2019-04-29T13:07:43.013Z,10.40
2019-04-29T13:10:42.203Z,10.20
2019-04-29T13:13:11.071Z,10.00
2019-04-29T13:16:04.582Z,9.90
2019-04-29T13:18:55.769Z,10.00
2019-04-29T13:21:27.251Z,10.30
2019-04-29T13:24:12.577Z,10.70
2019-04-29T13:26:33.434Z,11.10
2019-04-29T13:29:03.578Z,11.50
2019-04-29T13:31:38.678Z,11.80
2019-04-29T13:34:22.732Z,11.70
2019-04-29T13:36:40.445Z,11.50
2019-04-29T13:39:11.644Z,11.20
2019-04-29T13:41:56.882Z,10.80
2019-04-29T13:44:19.391Z,10.50
2019-04-29T13:47:18.313Z,10.20
2019-04-29T13:49:53.342Z,10.00
2019-04-29T13:52:23.958Z,10.30
2019-04-29T13:54:55.338Z,10.30
2019-04-29T13:57:27.209Z,10.30
2019-04-29T14:00:31.752Z,10.60
2019-04-29T14:03:15.588Z,10.80
2019-04-29T14:05:46.169Z,11.00
2019-04-29T14:08:16.704Z,11.10
2019-04-29T14:10:51.121Z,11.10
2019-04-29T14:13:21.127Z,11.00
2019-04-29T14:15:52.293Z,10.80
2019-04-29T14:18:22.863Z,10.80
2019-04-29T14:20:53.868Z,10.70
2019-04-29T14:23:25.310Z,10.70
2019-04-29T14:25:55.940Z,10.90
2019-04-29T14:28:26.466Z,10.90
2019-04-29T14:30:58.626Z,10.80
2019-04-29T14:33:34.668Z,10.70
2019-04-29T14:36:07.855Z,10.50
2019-04-29T14:38:40.807Z,10.40
2019-04-29T14:41:14.361Z,10.30
2019-04-29T14:44:06.856Z,10.20
2019-04-29T14:46:56.307Z,10.10
2019-04-29T14:49:29.865Z,10.10
2019-04-29T14:52:03.335Z,10.00
2019-04-29T14:54:36.864Z,10.10
2019-04-29T14:57:09.074Z,10.20
2019-04-29T14:59:39.002Z,10.20
2019-04-29T15:02:17.052Z,10.20
2019-04-29T15:04:48.176Z,10.10
2019-04-29T15:07:18.732Z,10.10
2019-04-29T15:09:57.318Z,10.00
2019-04-29T15:13:19.638Z,10.00
2019-04-29T15:16:04.602Z,10.00
2019-04-29T15:18:50.363Z,9.90
2019-04-29T15:21:33.485Z,9.80
2019-04-29T15:24:05.632Z,9.80
2019-04-29T15:26:36.113Z,9.90
2019-04-29T15:29:07.554Z,10.00
2019-04-29T15:31:42.432Z,9.90
2019-04-29T15:34:14.519Z,10.00
2019-04-29T15:36:45.210Z,9.90
2019-04-29T15:39:15.905Z,9.90
2019-04-29T15:41:47.190Z,9.80
2019-04-29T15:44:20.331Z,9.70
2019-04-29T15:46:50.715Z,9.60
2019-04-29T15:49:24.861Z,9.50
2019-04-29T15:51:53.808Z,9.50
2019-04-29T15:54:26.133Z,9.50
2019-04-29T15:56:57.050Z,9.40
2019-04-29T15:59:27.639Z,9.30
2019-04-29T16:02:03.454Z,9.20
2019-04-29T16:04:35.440Z,9.10
2019-04-29T16:07:33.941Z,9.10
2019-04-29T16:10:22.687Z,9.00
2019-04-29T16:12:57.063Z,8.90
2019-04-29T16:15:28.076Z,8.80
2019-04-29T16:17:59.110Z,8.80
2019-04-29T16:20:30.384Z,8.80
2019-04-29T16:23:02.123Z,8.70
2019-04-29T16:25:32.864Z,8.70
2019-04-29T16:28:03.460Z,8.70
2019-04-29T16:30:35.059Z,8.70
2019-04-29T16:33:13.456Z,8.80
2019-04-29T16:35:40.509Z,8.70
2019-04-29T16:38:13.497Z,8.80
2019-04-29T16:40:48.314Z,8.70
2019-04-29T16:43:36.288Z,8.70
2019-04-29T16:46:12.907Z,8.70
2019-04-29T16:48:45.724Z,8.60
2019-04-29T16:51:21.822Z,8.60
2019-04-29T16:53:57.450Z,8.50
2019-04-29T16:56:30.531Z,8.40
2019-04-29T16:59:08.963Z,8.50
2019-04-29T17:01:37.443Z,8.40
2019-04-29T17:04:09.288Z,8.40
2019-04-29T17:06:41.679Z,8.40
2019-04-29T17:09:39.297Z,8.40
2019-04-29T17:12:09.831Z,8.30
2019-04-29T17:15:02.434Z,8.20
2019-04-29T17:17:17.176Z,8.20
2019-04-29T17:19:48.143Z,8.20
2019-04-29T17:22:27.407Z,8.20
2019-04-29T17:24:52.575Z,8.20
2019-04-29T17:27:35.045Z,8.20
2019-04-29T17:30:17.639Z,8.20
2019-04-29T17:32:55.111Z,8.20
2019-04-29T17:35:28.780Z,8.20
2019-04-29T17:37:59.312Z,8.20
2019-04-29T17:40:30.974Z,8.10
2019-04-29T17:43:20.936Z,8.00
2019-04-29T17:46:26.228Z,8.00
2019-04-29T17:49:04.042Z,8.00
2019-04-29T17:51:36.136Z,7.90
2019-04-29T17:54:09.246Z,7.90
2019-04-29T17:56:51.175Z,7.90
2019-04-29T17:59:40.858Z,7.90
2019-04-29T18:02:28.924Z,7.90
2019-04-29T18:05:10.871Z,7.90
2019-04-29T18:08:05.249Z,7.80
2019-04-29T18:10:42.737Z,7.90
2019-04-29T18:13:21.833Z,7.90
2019-04-29T18:16:00.483Z,7.90
2019-04-29T18:18:28.195Z,7.90
2019-04-29T18:21:26.540Z,8.00
2019-04-29T18:24:18.807Z,8.10
2019-04-29T18:26:53.200Z,8.10
2019-04-29T18:29:25.779Z,8.10
2019-04-29T18:32:00.534Z,8.20
2019-04-29T18:34:33.602Z,8.30
2019-04-29T18:37:06.283Z,8.20
2019-04-29T18:39:37.412Z,8.30
2019-04-29T18:42:08.403Z,8.40
2019-04-29T18:44:54.983Z,8.20
2019-04-29T18:47:22.520Z,8.20
2019-04-29T18:49:47.793Z,8.00
2019-04-29T18:52:25.756Z,7.80
2019-04-29T18:54:51.919Z,7.80
2019-04-29T18:57:30.076Z,7.70
2019-04-29T18:59:55.459Z,7.60
2019-04-29T19:02:27.471Z,7.60
2019-04-29T19:05:06.272Z,7.50
2019-04-29T19:07:40.646Z,7.50
2019-04-29T19:10:14.307Z,7.40
2019-04-29T19:12:45.943Z,7.40
2019-04-29T19:15:17.820Z,7.40
2019-04-29T19:17:58.811Z,7.40
2019-04-29T19:20:52.598Z,7.40
2019-04-29T19:23:22.439Z,7.40
2019-04-29T19:25:50.853Z,7.40
2019-04-29T19:28:29.420Z,7.40
2019-04-29T19:30:57.848Z,7.40
2019-04-29T19:33:26.309Z,7.50
2019-04-29T19:35:56.779Z,7.50
2019-04-29T19:38:27.247Z,7.40
2019-04-29T19:40:58.119Z,7.50
2019-04-29T19:43:28.987Z,7.40
2019-04-29T19:46:00.282Z,7.40
2019-04-29T19:48:30.871Z,7.40
2019-04-29T19:51:18.534Z,7.30
2019-04-29T19:53:35.968Z,7.30
2019-04-29T19:56:06.926Z,7.30
2019-04-29T19:58:38.921Z,7.30
2019-04-29T20:01:13.858Z,7.30
2019-04-29T20:03:53.669Z,7.20
2019-04-29T20:06:29.351Z,7.20
2019-04-29T20:09:01.549Z,7.20
2019-04-29T20:11:33.763Z,7.20
2019-04-29T20:14:05.872Z,7.20
2019-04-29T20:16:59.444Z,7.20
2019-04-29T20:19:35.715Z,7.20
2019-04-29T20:22:09.413Z,7.20
2019-04-29T20:24:39.098Z,7.20
2019-04-29T20:27:10.512Z,7.20
2019-04-29T20:29:41.542Z,7.20
2019-04-29T20:32:12.193Z,7.20
2019-04-29T20:34:43.671Z,7.20
2019-04-29T20:37:19.555Z,7.20
2019-04-29T20:39:52.033Z,7.20
2019-04-29T20:42:21.981Z,7.20
2019-04-29T20:44:55.033Z,7.20
2019-04-29T20:47:37.447Z,7.20
2019-04-29T20:49:59.599Z,7.20
2019-04-29T20:52:55.981Z,7.20
2019-04-29T20:55:25.597Z,7.20
2019-04-29T20:57:56.148Z,7.20
2019-04-29T21:00:28.918Z,7.10
2019-04-29T21:03:03.550Z,7.20
2019-04-29T21:05:46.608Z,7.20
2019-04-29T21:08:14.337Z,7.10
2019-04-29T21:10:37.862Z,7.10
2019-04-29T21:13:37.763Z,7.20
2019-04-29T21:16:36.412Z,7.30
2019-04-29T21:19:09.086Z,7.20
2019-04-29T21:21:43.694Z,7.20
2019-04-29T21:24:17.331Z,7.20
2019-04-29T21:26:46.724Z,7.20
2019-04-29T21:29:19.457Z,7.20
2019-04-29T21:31:55.395Z,7.20
2019-04-29T21:34:25.482Z,7.10
2019-04-29T21:37:15.316Z,7.10
2019-04-29T21:40:13.690Z,7.10
2019-04-29T21:42:48.372Z,7.00
2019-04-29T21:45:25.588Z,7.00
2019-04-29T21:47:55.375Z,7.00
2019-04-29T21:50:33.873Z,7.00
2019-04-29T21:53:02.039Z,6.90
2019-04-29T21:55:32.711Z,6.90
2019-04-29T21:58:03.842Z,6.90
2019-04-29T22:00:34.890Z,6.90
2019-04-29T22:03:08.304Z,6.90
2019-04-29T22:05:38.923Z,6.90
2019-04-29T22:08:09.418Z,6.90
2019-04-29T22:10:40.596Z,6.90
2019-04-29T22:13:11.627Z,6.90
2019-04-29T22:15:42.753Z,6.90
2019-04-29T22:18:15.572Z,6.90
2019-04-29T22:20:46.649Z,6.90
2019-04-29T22:23:18.437Z,6.90
2019-04-29T22:25:48.938Z,6.90
2019-04-29T22:28:19.999Z,6.90
2019-04-29T22:30:54.847Z,6.80
2019-04-29T22:33:25.099Z,6.80
2019-04-29T22:35:55.557Z,6.80
2019-04-29T22:38:27.051Z,6.80
2019-04-29T22:40:59.203Z,6.70
2019-04-29T22:43:40.383Z,6.70
2019-04-29T22:46:11.304Z,6.80
2019-04-29T22:48:45.430Z,6.80
2019-04-29T22:51:18.720Z,6.80
2019-04-29T22:53:48.284Z,6.80
2019-04-29T22:56:18.961Z,6.70
2019-04-29T22:58:50.170Z,6.70
2019-04-29T23:01:21.540Z,6.70
2019-04-29T23:03:52.039Z,6.70
2019-04-29T23:06:22.652Z,6.70
2019-04-29T23:08:53.139Z,6.70
2019-04-29T23:11:23.671Z,6.70
2019-04-29T23:13:55.449Z,6.70
2019-04-29T23:16:26.475Z,6.70
2019-04-29T23:18:56.984Z,6.70
2019-04-29T23:21:58.083Z,6.70
2019-04-29T23:24:46.655Z,6.70
2019-04-29T23:27:19.708Z,6.70
2019-04-29T23:29:50.440Z,6.70
2019-04-29T23:32:21.382Z,6.70
2019-04-29T23:34:52.393Z,6.60
2019-04-29T23:37:23.856Z,6.60
2019-04-29T23:39:56.319Z,6.60
2019-04-29T23:42:26.831Z,6.70
2019-04-29T23:44:57.915Z,6.70
2019-04-29T23:47:28.844Z,6.70
2019-04-29T23:49:59.817Z,6.70
2019-04-29T23:52:30.316Z,6.70
2019-04-29T23:55:00.801Z,6.60
2019-04-29T23:57:41.806Z,6.60
